Station Historical Data
Daily Summary for February 13, 2012 Units:  English    Metric   Both
« Previous Day
Next Day »
Daily Weekly Monthly Yearly Custom
  High: Low: Average:
Temperature: 41.0 °F 21.0 °F 32 °F
Dew Point: 32.8 °F 10.2 °F 19.9 °F
Humidity: 88% 44% 62%
Wind Speed: 11.0mph 0.0mph 3.2mph
Wind Gust: 15.0mph - -
Wind- - ESE
Pressure: 30.39 in 30.02 in -
Precipitation: 0.07 in    
Historical Graphs
 
 
Tabular Data for February 13, 2012
Time Temperature Dew Point Pressure Wind Wind Speed Wind Gust Humidity Rainfall Rate (Hourly) Conditions
00:00 26.1 °F 10.5 °F 30.39 in Calm     51% 0.00 in
00:01 26.0 °F 10.4 °F 30.39 in Calm     51% 0.00 in
00:06 25.3 °F 10.6 °F 30.39 in Calm     53% 0.00 in
00:11 25.2 °F 10.9 °F 30.39 in Calm     54% 0.00 in
00:16 25.5 °F 10.8 °F 30.39 in Calm     53% 0.00 in
00:21 26.2 °F 11.0 °F 30.38 in Calm     52% 0.00 in
00:26 26.6 °F 10.9 °F 30.38 in Calm   1.0 mph 51% 0.00 in
00:31 26.6 °F 10.9 °F 30.38 in Calm     51% 0.00 in
00:36 26.0 °F 10.8 °F 30.38 in Calm     52% 0.00 in
00:41 25.4 °F 10.2 °F 30.38 in Calm     52% 0.00 in
00:46 25.3 °F 10.6 °F 30.38 in Calm     53% 0.00 in
00:51 25.1 °F 10.8 °F 30.38 in Calm     54% 0.00 in
00:56 24.7 °F 10.9 °F 30.38 in Calm     55% 0.00 in
01:01 24.3 °F 11.3 °F 30.38 in Calm     57% 0.00 in
01:06 23.8 °F 10.4 °F 30.38 in Calm     56% 0.00 in
01:11 23.9 °F 10.5 °F 30.38 in Calm     56% 0.00 in
01:16 24.2 °F 11.2 °F 30.38 in Calm     57% 0.00 in
01:21 24.3 °F 11.3 °F 30.38 in Calm     57% 0.00 in
01:26 24.2 °F 11.6 °F 30.38 in Calm     58% 0.00 in
01:31 23.9 °F 11.3 °F 30.37 in Calm     58% 0.00 in
01:36 24.3 °F 11.3 °F 30.37 in Calm     57% 0.00 in
01:42 25.0 °F 11.1 °F 30.37 in North 1.0 mph 2.0 mph 55% 0.00 in
01:47 25.6 °F 11.3 °F 30.37 in NNE 1.0 mph 2.0 mph 54% 0.00 in
01:52 26.0 °F 11.2 °F 30.37 in NNE 1.0 mph 2.0 mph 53% 0.00 in
01:57 26.3 °F 11.1 °F 30.37 in NNE 2.0 mph 2.0 mph 52% 0.00 in
02:02 26.5 °F 11.3 °F 30.37 in NNE 1.0 mph 1.0 mph 52% 0.00 in
02:07 26.2 °F 11.4 °F 30.37 in Calm   1.0 mph 53% 0.00 in
02:12 26.0 °F 11.2 °F 30.36 in Calm   1.0 mph 53% 0.00 in
02:17 25.9 °F 11.1 °F 30.36 in NNE 1.0 mph 2.0 mph 53% 0.00 in
02:22 26.1 °F 11.3 °F 30.36 in NNE 1.0 mph 2.0 mph 53% 0.00 in
02:27 26.2 °F 11.0 °F 30.36 in NNE 2.0 mph 2.0 mph 52% 0.00 in
02:32 26.3 °F 11.1 °F 30.35 in NE 1.0 mph 2.0 mph 52% 0.00 in
02:37 26.3 °F 11.1 °F 30.35 in NE 1.0 mph 1.0 mph 52% 0.00 in
02:42 26.3 °F 11.1 °F 30.35 in Calm   1.0 mph 52% 0.00 in
02:47 26.1 °F 11.3 °F 30.35 in Calm   1.0 mph 53% 0.00 in
02:52 25.6 °F 11.7 °F 30.35 in Calm   1.0 mph 55% 0.00 in
02:57 25.2 °F 11.3 °F 30.35 in NE 1.0 mph 1.0 mph 55% 0.00 in
03:02 25.3 °F 11.0 °F 30.34 in NE 2.0 mph 3.0 mph 54% 0.00 in
03:07 25.4 °F 11.1 °F 30.34 in NE 2.0 mph 3.0 mph 54% 0.00 in
03:12 25.4 °F 11.1 °F 30.34 in NNE 1.0 mph 3.0 mph 54% 0.00 in
03:17 25.6 °F 11.3 °F 30.34 in NNE 2.0 mph 3.0 mph 54% 0.00 in
03:22 25.8 °F 11.5 °F 30.33 in NNE 3.0 mph 3.0 mph 54% 0.00 in
03:27 25.8 °F 11.5 °F 30.34 in NE 1.0 mph 2.0 mph 54% 0.00 in
03:32 25.8 °F 11.5 °F 30.34 in Calm   2.0 mph 54% 0.00 in
03:38 25.7 °F 11.4 °F 30.34 in Calm   1.0 mph 54% 0.00 in
03:43 25.1 °F 11.2 °F 30.34 in Calm     55% 0.00 in
03:48 24.2 °F 11.6 °F 30.34 in Calm     58% 0.00 in
03:53 23.4 °F 11.2 °F 30.33 in Calm     59% 0.00 in
03:58 23.4 °F 11.2 °F 30.33 in Calm     59% 0.00 in
04:03 23.4 °F 11.6 °F 30.33 in Calm     60% 0.00 in
04:08 23.4 °F 12.3 °F 30.33 in Calm     62% 0.00 in
04:13 23.3 °F 12.6 °F 30.33 in Calm   1.0 mph 63% 0.00 in
04:18 23.2 °F 12.5 °F 30.33 in Calm     63% 0.00 in
04:23 22.7 °F 12.4 °F 30.34 in Calm     64% 0.00 in
04:28 22.1 °F 11.8 °F 30.34 in Calm     64% 0.00 in
04:33 21.5 °F 11.9 °F 30.34 in Calm     66% 0.00 in
04:38 21.5 °F 12.3 °F 30.34 in Calm     67% 0.00 in
04:43 21.1 °F 11.2 °F 30.33 in Calm     65% 0.00 in
04:48 21.0 °F 11.1 °F 30.33 in Calm     65% 0.00 in
04:53 22.0 °F 11.4 °F 30.33 in Calm     63% 0.00 in
04:58 22.3 °F 12.0 °F 30.33 in Calm     64% 0.00 in
05:03 22.2 °F 11.5 °F 30.33 in Calm     63% 0.00 in
05:08 22.1 °F 11.1 °F 30.34 in Calm     62% 0.00 in
05:13 21.9 °F 10.9 °F 30.34 in Calm     62% 0.00 in
05:18 21.7 °F 11.4 °F 30.33 in Calm     64% 0.00 in
05:23 22.2 °F 11.5 °F 30.34 in Calm     63% 0.00 in
05:28 22.4 °F 11.7 °F 30.33 in Calm     63% 0.00 in
05:33 23.0 °F 11.2 °F 30.32 in NE 2.0 mph 3.0 mph 60% 0.00 in
05:38 23.9 °F 12.1 °F 30.32 in ENE 1.0 mph 2.0 mph 60% 0.00 in
05:43 24.6 °F 11.9 °F 30.32 in ENE 2.0 mph 4.0 mph 58% 0.00 in
05:48 25.0 °F 12.3 °F 30.32 in NE 2.0 mph 4.0 mph 58% 0.00 in
05:53 25.2 °F 12.5 °F 30.31 in NE 4.0 mph 4.0 mph 58% 0.00 in
05:59 25.4 °F 12.3 °F 30.31 in NE 2.0 mph 4.0 mph 57% 0.00 in
06:04 25.4 °F 11.9 °F 30.32 in East 1.0 mph 2.0 mph 56% 0.00 in
06:09 25.1 °F 12.4 °F 30.32 in ESE 1.0 mph 1.0 mph 58% 0.00 in
06:14 24.6 °F 12.7 °F 30.32 in Calm     60% 0.00 in
06:19 24.2 °F 12.7 °F 30.32 in Calm     61% 0.00 in
06:24 24.1 °F 13.0 °F 30.32 in Calm     62% 0.00 in
06:29 23.6 °F 12.9 °F 30.32 in Calm     63% 0.00 in
06:34 22.9 °F 13.3 °F 30.33 in Calm     66% 0.00 in
06:39 22.8 °F 13.2 °F 30.32 in Calm     66% 0.00 in
06:44 23.1 °F 12.4 °F 30.32 in East 1.0 mph 1.0 mph 63% 0.00 in
06:49 23.5 °F 12.4 °F 30.32 in Calm   1.0 mph 62% 0.00 in
06:54 23.7 °F 12.2 °F 30.32 in Calm     61% 0.00 in
06:59 23.5 °F 12.8 °F 30.32 in Calm     63% 0.00 in
07:04 23.6 °F 12.5 °F 30.32 in Calm     62% 0.00 in
07:09 23.9 °F 12.8 °F 30.32 in Calm     62% 0.00 in
07:14 24.3 °F 12.8 °F 30.32 in Calm     61% 0.00 in
07:19 24.8 °F 12.5 °F 30.32 in ESE 1.0 mph 3.0 mph 59% 0.00 in
07:24 25.1 °F 12.8 °F 30.32 in East 1.0 mph 2.0 mph 59% 0.00 in
07:29 25.0 °F 13.8 °F 30.33 in ESE 2.0 mph 2.0 mph 62% 0.00 in
07:34 25.0 °F 13.5 °F 30.33 in East 2.0 mph 2.0 mph 61% 0.00 in
07:39 25.0 °F 13.5 °F 30.33 in ESE 2.0 mph 2.0 mph 61% 0.00 in
07:44 25.1 °F 14.3 °F 30.34 in SE 2.0 mph 3.0 mph 63% 0.00 in
07:49 25.1 °F 15.4 °F 30.33 in ESE 2.0 mph 3.0 mph 66% 0.00 in
07:54 25.4 °F 15.3 °F 30.33 in ESE 2.0 mph 2.0 mph 65% 0.00 in
07:59 25.8 °F 16.0 °F 30.33 in East 3.0 mph 3.0 mph 66% 0.00 in
08:04 26.1 °F 16.3 °F 30.33 in ESE 3.0 mph 5.0 mph 66% 0.00 in
08:09 26.5 °F 16.7 °F 30.33 in ESE 2.0 mph 5.0 mph 66% 0.00 in
08:14 27.0 °F 16.8 °F 30.33 in East 3.0 mph 5.0 mph 65% 0.00 in
08:19 27.3 °F 16.4 °F 30.33 in ESE 4.0 mph 6.0 mph 63% 0.00 in
08:24 27.3 °F 16.4 °F 30.33 in ESE 4.0 mph 5.0 mph 63% 0.00 in
08:29 27.2 °F 17.0 °F 30.33 in ESE 3.0 mph 5.0 mph 65% 0.00 in
08:34 27.2 °F 17.4 °F 30.33 in ESE 3.0 mph 5.0 mph 66% 0.00 in
08:40 27.3 °F 18.5 °F 30.33 in ESE 3.0 mph 3.0 mph 69% 0.00 in
08:45 27.4 °F 18.2 °F 30.32 in ESE 2.0 mph 4.0 mph 68% 0.00 in
08:50 27.3 °F 17.8 °F 30.33 in SE 3.0 mph 4.0 mph 67% 0.00 in
08:55 27.3 °F 17.1 °F 30.33 in ESE 4.0 mph 6.0 mph 65% 0.00 in
09:00 27.3 °F 17.1 °F 30.33 in ESE 6.0 mph 6.0 mph 65% 0.00 in
09:05 27.3 °F 17.5 °F 30.32 in ESE 4.0 mph 7.0 mph 66% 0.00 in
09:10 27.3 °F 17.5 °F 30.31 in ESE 8.0 mph 8.0 mph 66% 0.00 in
09:15 27.5 °F 18.0 °F 30.31 in East 5.0 mph 6.0 mph 67% 0.00 in
09:20 27.8 °F 18.3 °F 30.31 in East 3.0 mph 5.0 mph 67% 0.00 in
09:25 28.0 °F 18.5 °F 30.32 in ESE 2.0 mph 5.0 mph 67% 0.00 in
09:30 28.2 °F 18.3 °F 30.31 in East 4.0 mph 6.0 mph 66% 0.00 in
09:35 28.4 °F 18.5 °F 30.31 in ESE 3.0 mph 4.0 mph 66% 0.00 in
09:40 28.5 °F 18.6 °F 30.31 in ESE 7.0 mph 7.0 mph 66% 0.00 in
09:42 28.5 °F 17.9 °F 30.31 in ESE 6.0 mph 7.0 mph 64% 0.00 in
09:47 28.7 °F 18.4 °F 30.31 in East 3.0 mph 5.0 mph 65% 0.00 in
09:52 29.0 °F 19.1 °F 30.31 in ESE 4.0 mph 5.0 mph 66% 0.00 in
09:57 29.5 °F 19.6 °F 30.30 in ESE 4.0 mph 5.0 mph 66% 0.00 in
10:02 29.8 °F 18.8 °F 30.30 in ESE 4.0 mph 6.0 mph 63% 0.00 in
10:07 30.1 °F 19.0 °F 30.30 in ESE 4.0 mph 6.0 mph 63% 0.00 in
10:12 30.6 °F 19.9 °F 30.30 in East 4.0 mph 4.0 mph 64% 0.00 in
10:17 30.8 °F 18.6 °F 30.30 in ESE 8.0 mph 10.0 mph 60% 0.00 in
10:22 30.9 °F 19.0 °F 30.30 in ESE 4.0 mph 6.0 mph 61% 0.00 in
10:27 31.3 °F 18.6 °F 30.30 in ESE 3.0 mph 7.0 mph 59% 0.00 in
10:32 31.7 °F 18.6 °F 30.30 in SE 5.0 mph 7.0 mph 58% 0.00 in
10:37 32.1 °F 19.0 °F 30.31 in ESE 4.0 mph 7.0 mph 58% 0.00 in
10:42 32.5 °F 19.4 °F 30.31 in SE 5.0 mph 5.0 mph 58% 0.00 in
10:47 32.7 °F 19.2 °F 30.30 in SSE 3.0 mph 4.0 mph 57% 0.00 in
10:52 32.9 °F 18.5 °F 30.30 in ESE 4.0 mph 5.0 mph 55% 0.00 in
10:57 33.2 °F 18.8 °F 30.30 in SSE 2.0 mph 6.0 mph 55% 0.00 in
11:03 33.5 °F 19.1 °F 30.30 in SE 3.0 mph 5.0 mph 55% 0.00 in
11:08 33.6 °F 19.2 °F 30.30 in SE 5.0 mph 6.0 mph 55% 0.00 in
11:13 33.7 °F 18.8 °F 30.30 in ESE 5.0 mph 6.0 mph 54% 0.00 in
11:18 33.8 °F 18.9 °F 30.30 in SE 4.0 mph 6.0 mph 54% 0.00 in
11:23 34.0 °F 18.2 °F 30.29 in SE 3.0 mph 7.0 mph 52% 0.00 in
11:28 34.3 °F 18.5 °F 30.29 in SE 5.0 mph 7.0 mph 52% 0.00 in
11:33 34.4 °F 18.2 °F 30.29 in SE 4.0 mph 6.0 mph 51% 0.00 in
11:38 34.6 °F 18.3 °F 30.28 in ESE 8.0 mph 10.0 mph 51% 0.00 in
11:43 34.5 °F 17.8 °F 30.28 in ESE 10.0 mph 10.0 mph 50% 0.00 in
11:48 34.7 °F 18.4 °F 30.27 in SE 5.0 mph 9.0 mph 51% 0.00 in
11:53 35.0 °F 17.8 °F 30.27 in SE 7.0 mph 9.0 mph 49% 0.00 in
11:58 35.2 °F 18.4 °F 30.27 in ESE 5.0 mph 8.0 mph 50% 0.00 in
12:03 35.3 °F 18.1 °F 30.26 in SE 5.0 mph 10.0 mph 49% 0.00 in
12:08 35.3 °F 18.5 °F 30.26 in ESE 5.0 mph 7.0 mph 50% 0.00 in
12:13 35.4 °F 18.6 °F 30.26 in SE 6.0 mph 8.0 mph 50% 0.00 in
12:18 35.6 °F 18.8 °F 30.26 in SE 4.0 mph 8.0 mph 50% 0.00 in
12:23 35.9 °F 19.1 °F 30.26 in SE 5.0 mph 6.0 mph 50% 0.00 in
12:28 36.1 °F 18.8 °F 30.25 in SE 7.0 mph 10.0 mph 49% 0.00 in
12:33 35.8 °F 18.0 °F 30.25 in SE 5.0 mph 8.0 mph 48% 0.00 in
12:38 35.7 °F 18.4 °F 30.25 in SE 6.0 mph 9.0 mph 49% 0.00 in
12:43 35.9 °F 18.6 °F 30.25 in SSE 4.0 mph 9.0 mph 49% 0.00 in
12:48 36.3 °F 19.9 °F 30.24 in ESE 4.0 mph 6.0 mph 51% 0.00 in
12:54 36.6 °F 18.8 °F 30.24 in SE 6.0 mph 7.0 mph 48% 0.00 in
12:59 36.8 °F 19.5 °F 30.24 in SE 5.0 mph 7.0 mph 49% 0.00 in
13:04 37.0 °F 19.1 °F 30.23 in South 4.0 mph 7.0 mph 48% 0.00 in
13:09 37.5 °F 19.1 °F 30.23 in South 4.0 mph 5.0 mph 47% 0.00 in
13:14 37.7 °F 18.8 °F 30.22 in SSE 4.0 mph 8.0 mph 46% 0.00 in
13:19 38.1 °F 20.2 °F 30.22 in SSE 5.0 mph 7.0 mph 48% 0.00 in
13:24 38.6 °F 19.6 °F 30.22 in ESE 4.0 mph 6.0 mph 46% 0.00 in
13:29 38.5 °F 19.0 °F 30.21 in Calm   5.0 mph 45% 0.00 in
13:34 38.5 °F 18.5 °F 30.21 in SSW 2.0 mph 7.0 mph 44% 0.00 in
13:39 38.6 °F 19.1 °F 30.21 in South 4.0 mph 5.0 mph 45% 0.00 in
13:44 38.7 °F 19.2 °F 30.21 in SE 5.0 mph 6.0 mph 45% 0.00 in
13:49 38.9 °F 19.4 °F 30.20 in SE 5.0 mph 6.0 mph 45% 0.00 in
13:54 38.9 °F 19.4 °F 30.19 in SE 5.0 mph 6.0 mph 45% 0.00 in
13:59 39.2 °F 19.7 °F 30.18 in SE 4.0 mph 6.0 mph 45% 0.00 in
14:04 39.2 °F 19.1 °F 30.18 in ESE 4.0 mph 7.0 mph 44% 0.00 in
14:09 39.5 °F 19.4 °F 30.17 in ESE 1.0 mph 5.0 mph 44% 0.00 in
14:14 39.6 °F 19.5 °F 30.17 in SE 2.0 mph 8.0 mph 44% 0.00 in
14:19 39.6 °F 19.5 °F 30.17 in ESE 1.0 mph 4.0 mph 44% 0.00 in
14:24 39.7 °F 19.6 °F 30.17 in SSE 4.0 mph 6.0 mph 44% 0.00 in
14:29 40.0 °F 20.9 °F 30.17 in South 2.0 mph 5.0 mph 46% 0.00 in
14:34 40.2 °F 20.0 °F 30.16 in SE 4.0 mph 6.0 mph 44% 0.00 in
14:40 40.0 °F 19.9 °F 30.16 in SE 3.0 mph 6.0 mph 44% 0.00 in
14:46 39.8 °F 20.7 °F 30.16 in ESE 5.0 mph 6.0 mph 46% 0.00 in
14:51 39.9 °F 19.8 °F 30.16 in SSE 5.0 mph 6.0 mph 44% 0.00 in
14:56 40.0 °F 20.9 °F 30.16 in South 3.0 mph 6.0 mph 46% 0.00 in
15:01 39.9 °F 20.3 °F 30.16 in SSE 4.0 mph 7.0 mph 45% 0.00 in
15:06 39.7 °F 19.6 °F 30.16 in SSE 5.0 mph 6.0 mph 44% 0.00 in
15:11 39.8 °F 20.2 °F 30.16 in SSE 4.0 mph 4.0 mph 45% 0.00 in
15:16 39.9 °F 20.8 °F 30.15 in SSE 4.0 mph 7.0 mph 46% 0.00 in
15:21 40.0 °F 21.4 °F 30.15 in South 2.0 mph 4.0 mph 47% 0.00 in
15:26 40.0 °F 20.9 °F 30.15 in South 2.0 mph 4.0 mph 46% 0.00 in
15:31 40.0 °F 21.4 °F 30.14 in SW 1.0 mph 4.0 mph 47% 0.00 in
15:36 40.3 °F 21.2 °F 30.14 in SE 3.0 mph 4.0 mph 46% 0.00 in
15:41 40.3 °F 21.7 °F 30.13 in ESE 3.0 mph 5.0 mph 47% 0.00 in
15:46 40.2 °F 21.1 °F 30.13 in SE 2.0 mph 4.0 mph 46% 0.00 in
15:51 40.3 °F 21.7 °F 30.13 in South 3.0 mph 6.0 mph 47% 0.00 in
15:56 40.6 °F 22.0 °F 30.13 in SSE 4.0 mph 5.0 mph 47% 0.00 in
16:01 40.6 °F 22.0 °F 30.13 in South 2.0 mph 4.0 mph 47% 0.00 in
16:06 40.5 °F 21.9 °F 30.13 in SE 1.0 mph 3.0 mph 47% 0.00 in
16:11 40.7 °F 22.1 °F 30.13 in SSE 3.0 mph 3.0 mph 47% 0.00 in
16:16 40.8 °F 21.6 °F 30.13 in SSE 4.0 mph 6.0 mph 46% 0.00 in
16:21 40.7 °F 21.0 °F 30.13 in SSE 4.0 mph 6.0 mph 45% 0.00 in
16:26 40.9 °F 22.2 °F 30.12 in SSE 5.0 mph 6.0 mph 47% 0.00 in
16:31 41.0 °F 22.8 °F 30.13 in SSE 6.0 mph 6.0 mph 48% 0.00 in
16:36 40.9 °F 22.7 °F 30.13 in ESE 6.0 mph 6.0 mph 48% 0.00 in
16:41 40.7 °F 23.0 °F 30.13 in SE 5.0 mph 5.0 mph 49% 0.00 in
16:46 40.5 °F 21.9 °F 30.12 in ESE 8.0 mph 9.0 mph 47% 0.00 in
16:51 40.4 °F 21.8 °F 30.12 in SE 5.0 mph 6.0 mph 47% 0.00 in
16:56 40.4 °F 21.8 °F 30.12 in SSE 4.0 mph 8.0 mph 47% 0.00 in
17:01 40.4 °F 22.3 °F 30.12 in SE 4.0 mph 6.0 mph 48% 0.00 in
17:06 40.4 °F 22.3 °F 30.12 in SSE 4.0 mph 7.0 mph 48% 0.00 in
17:11 40.3 °F 22.7 °F 30.12 in ESE 2.0 mph 5.0 mph 49% 0.00 in
17:16 40.2 °F 22.1 °F 30.13 in South 1.0 mph 6.0 mph 48% 0.00 in
17:21 40.2 °F 23.1 °F 30.14 in South 1.0 mph 5.0 mph 50% 0.00 in
17:26 40.2 °F 23.1 °F 30.14 in SSW 1.0 mph 3.0 mph 50% 0.00 in
17:31 40.2 °F 23.1 °F 30.15 in SW 4.0 mph 4.0 mph 50% 0.00 in
17:37 40.1 °F 23.0 °F 30.15 in SSE 6.0 mph 6.0 mph 50% 0.00 in
17:42 39.7 °F 25.7 °F 30.15 in SSW 5.0 mph 12.0 mph 57% 0.00 in
17:47 39.0 °F 26.7 °F 30.15 in SSW 4.0 mph 12.0 mph 61% 0.00 in
17:52 38.4 °F 28.0 °F 30.15 in South 3.0 mph 8.0 mph 66% 0.00 in
17:57 37.9 °F 28.3 °F 30.14 in South 8.0 mph 12.0 mph 68% 0.00 in
18:02 37.5 °F 28.6 °F 30.15 in SE 11.0 mph 15.0 mph 70% 0.00 in
18:07 37.2 °F 29.0 °F 30.14 in South 8.0 mph 9.0 mph 72% 0.00 in
18:12 36.9 °F 29.4 °F 30.14 in SE 8.0 mph 10.0 mph 74% 0.00 in
18:17 36.7 °F 29.5 °F 30.14 in ESE 6.0 mph 7.0 mph 75% 0.00 in
18:22 36.5 °F 29.7 °F 30.13 in SE 6.0 mph 8.0 mph 76% 0.00 in
18:27 36.4 °F 29.6 °F 30.13 in SE 5.0 mph 7.0 mph 76% 0.00 in
18:32 36.3 °F 29.8 °F 30.13 in SE 4.0 mph 5.0 mph 77% 0.00 in
18:37 36.3 °F 29.8 °F 30.13 in SE 3.0 mph 5.0 mph 77% 0.00 in
18:42 36.3 °F 29.8 °F 30.13 in ESE 4.0 mph 5.0 mph 77% 0.00 in
18:47 36.2 °F 29.4 °F 30.13 in SE 3.0 mph 6.0 mph 76% 0.00 in
18:52 36.2 °F 29.4 °F 30.13 in SE 3.0 mph 4.0 mph 76% 0.00 in
18:57 36.1 °F 29.6 °F 30.12 in ESE 3.0 mph 4.0 mph 77% 0.00 in
19:02 36.1 °F 29.9 °F 30.11 in ESE 2.0 mph 4.0 mph 78% 0.00 in
19:07 36.0 °F 29.8 °F 30.12 in SSE 3.0 mph 5.0 mph 78% 0.00 in
19:12 36.1 °F 29.9 °F 30.13 in SE 3.0 mph 3.0 mph 78% 0.00 in
19:17 36.1 °F 29.9 °F 30.12 in SE 3.0 mph 4.0 mph 78% 0.00 in
19:22 36.1 °F 29.9 °F 30.11 in SE 3.0 mph 5.0 mph 78% 0.00 in
19:27 36.2 °F 29.7 °F 30.11 in SE 3.0 mph 5.0 mph 77% 0.00 in
19:32 36.2 °F 30.3 °F 30.11 in SE 3.0 mph 6.0 mph 79% 0.00 in
19:37 36.1 °F 30.2 °F 30.12 in ESE 2.0 mph 4.0 mph 79% 0.00 in
19:42 36.0 °F 30.4 °F 30.11 in ESE 5.0 mph 5.0 mph 80% 0.00 in
19:47 36.0 °F 30.4 °F 30.12 in ESE 4.0 mph 6.0 mph 80% 0.00 in
19:52 36.0 °F 30.4 °F 30.12 in ESE 4.0 mph 4.0 mph 80% 0.00 in
19:57 36.1 °F 30.8 °F 30.12 in ESE 3.0 mph 5.0 mph 81% 0.00 in
20:03 36.2 °F 30.6 °F 30.12 in SE 3.0 mph 4.0 mph 80% 0.00 in
20:08 36.3 °F 30.7 °F 30.12 in SE 5.0 mph 6.0 mph 80% 0.00 in
20:13 36.3 °F 30.7 °F 30.11 in SE 5.0 mph 6.0 mph 80% 0.00 in
20:18 36.4 °F 30.8 °F 30.11 in SE 4.0 mph 7.0 mph 80% 0.00 in
20:23 36.4 °F 30.8 °F 30.11 in SE 3.0 mph 4.0 mph 80% 0.00 in
20:28 36.4 °F 30.8 °F 30.10 in ESE 6.0 mph 9.0 mph 80% 0.00 in
20:33 36.3 °F 31.0 °F 30.09 in SE 6.0 mph 7.0 mph 81% 0.00 in
20:38 36.1 °F 30.8 °F 30.08 in East 5.0 mph 5.0 mph 81% 0.00 in
20:43 36.1 °F 30.8 °F 30.08 in SE 5.0 mph 7.0 mph 81% 0.00 in
20:48 36.0 °F 31.0 °F 30.08 in ESE 6.0 mph 8.0 mph 82% 0.00 in
20:53 36.1 °F 31.1 °F 30.08 in ESE 6.0 mph 8.0 mph 82% 0.00 in
20:58 36.1 °F 31.1 °F 30.07 in ESE 6.0 mph 8.0 mph 82% 0.00 in
21:03 36.2 °F 31.2 °F 30.08 in SE 4.0 mph 8.0 mph 82% 0.00 in
21:08 36.1 °F 31.1 °F 30.08 in ESE 4.0 mph 5.0 mph 82% 0.00 in
21:13 36.2 °F 31.2 °F 30.08 in SE 4.0 mph 6.0 mph 82% 0.00 in
21:18 36.2 °F 30.9 °F 30.08 in ESE 5.0 mph 8.0 mph 81% 0.00 in
21:23 36.2 °F 31.2 °F 30.07 in ESE 5.0 mph 7.0 mph 82% 0.00 in
21:28 36.0 °F 31.4 °F 30.06 in ESE 6.0 mph 8.0 mph 83% 0.00 in
21:33 35.9 °F 31.2 °F 30.06 in ESE 6.0 mph 7.0 mph 83% 0.00 in
21:38 35.9 °F 31.2 °F 30.06 in SE 7.0 mph 7.0 mph 83% 0.00 in
21:43 35.9 °F 31.0 °F 30.07 in SE 5.0 mph 8.0 mph 82% 0.00 in
21:48 35.9 °F 31.0 °F 30.07 in ESE 5.0 mph 8.0 mph 82% 0.00 in
21:53 36.0 °F 31.0 °F 30.07 in SE 6.0 mph 9.0 mph 82% 0.00 in
21:58 36.0 °F 31.0 °F 30.07 in SE 5.0 mph 8.0 mph 82% 0.00 in
22:03 36.0 °F 31.4 °F 30.06 in ESE 3.0 mph 7.0 mph 83% 0.00 in
22:08 35.9 °F 31.5 °F 30.06 in SE 5.0 mph 8.0 mph 84% 0.00 in
22:13 35.9 °F 31.5 °F 30.07 in SE 5.0 mph 6.0 mph 84% 0.00 in
22:18 35.9 °F 31.5 °F 30.08 in SE 6.0 mph 8.0 mph 84% 0.00 in
22:23 35.9 °F 31.5 °F 30.07 in SE 7.0 mph 9.0 mph 84% 0.00 in
22:28 35.9 °F 31.8 °F 30.08 in ESE 9.0 mph 9.0 mph 85% 0.07 in
22:33 35.9 °F 31.8 °F 30.07 in SE 5.0 mph 10.0 mph 85% 0.07 in
22:38 35.9 °F 31.8 °F 30.07 in SE 6.0 mph 9.0 mph 85% 0.06 in
22:44 36.0 °F 31.9 °F 30.07 in SE 6.0 mph 11.0 mph 85% 0.05 in
22:49 35.9 °F 32.1 °F 30.07 in SE 6.0 mph 9.0 mph 86% 0.05 in
22:54 36.0 °F 31.9 °F 30.05 in SE 8.0 mph 11.0 mph 85% 0.05 in
22:59 36.0 °F 32.2 °F 30.06 in SE 8.0 mph 11.0 mph 86% 0.04 in
23:04 35.9 °F 32.1 °F 30.04 in ESE 11.0 mph 12.0 mph 86% 0.04 in
23:09 35.8 °F 32.0 °F 30.04 in ESE 10.0 mph 10.0 mph 86% 0.04 in
23:14 35.8 °F 32.0 °F 30.03 in ESE 7.0 mph 11.0 mph 86% 0.00 in
23:19 35.8 °F 32.0 °F 30.03 in ESE 5.0 mph 9.0 mph 86% 0.00 in
23:24 35.8 °F 32.0 °F 30.03 in SE 6.0 mph 9.0 mph 86% 0.00 in
23:29 35.8 °F 32.3 °F 30.03 in SE 5.0 mph 9.0 mph 87% 0.00 in
23:34 35.8 °F 32.3 °F 30.03 in SE 5.0 mph 8.0 mph 87% 0.00 in
23:39 35.9 °F 32.4 °F 30.03 in ESE 7.0 mph 10.0 mph 87% 0.00 in
23:44 35.9 °F 32.4 °F 30.03 in SE 6.0 mph 8.0 mph 87% 0.00 in
23:49 36.0 °F 32.5 °F 30.03 in SE 8.0 mph 9.0 mph 87% 0.00 in
23:54 36.0 °F 32.8 °F 30.02 in SE 8.0 mph 9.0 mph 88% 0.00 in
23:59 36.0 °F 32.8 °F 30.03 in SSE 5.0 mph 10.0 mph 88% 0.00 in
Compliments of Weather Underground